sensor_id;sensor_type;location;lat;lon;timestamp;P1;durP1;ratioP1;P2;durP2;ratioP2
57085;SDS011;42964;42.910;23.792;2023-01-31T00:03:05;33.80;;;19.33;;
57085;SDS011;42964;42.910;23.792;2023-01-31T00:08:04;38.42;;;20.38;;
57085;SDS011;42964;42.910;23.792;2023-01-31T00:13:03;41.58;;;22.77;;
57085;SDS011;42964;42.910;23.792;2023-01-31T00:18:02;35.72;;;18.33;;
57085;SDS011;42964;42.910;23.792;2023-01-31T00:23:01;41.88;;;19.55;;
57085;SDS011;42964;42.910;23.792;2023-01-31T00:28:00;48.90;;;26.67;;
57085;SDS011;42964;42.910;23.792;2023-01-31T00:32:59;60.03;;;33.05;;
57085;SDS011;42964;42.910;23.792;2023-01-31T00:37:58;36.63;;;19.40;;
57085;SDS011;42964;42.910;23.792;2023-01-31T00:42:58;39.28;;;21.75;;
57085;SDS011;42964;42.910;23.792;2023-01-31T00:47:57;49.92;;;24.92;;
57085;SDS011;42964;42.910;23.792;2023-01-31T00:52:56;57.70;;;31.80;;
57085;SDS011;42964;42.910;23.792;2023-01-31T00:57:55;49.97;;;25.70;;
57085;SDS011;42964;42.910;23.792;2023-01-31T01:02:54;40.08;;;21.30;;
57085;SDS011;42964;42.910;23.792;2023-01-31T01:07:53;36.22;;;20.42;;
57085;SDS011;42964;42.910;23.792;2023-01-31T01:12:52;37.97;;;20.08;;
57085;SDS011;42964;42.910;23.792;2023-01-31T01:22:50;43.53;;;22.63;;
57085;SDS011;42964;42.910;23.792;2023-01-31T01:27:49;55.83;;;27.98;;
57085;SDS011;42964;42.910;23.792;2023-01-31T01:32:48;50.47;;;27.02;;
57085;SDS011;42964;42.910;23.792;2023-01-31T01:37:47;39.58;;;17.98;;
57085;SDS011;42964;42.910;23.792;2023-01-31T01:42:46;63.65;;;34.92;;
57085;SDS011;42964;42.910;23.792;2023-01-31T01:47:54;54.63;;;28.38;;
57085;SDS011;42964;42.910;23.792;2023-01-31T01:52:59;54.45;;;28.73;;
57085;SDS011;42964;42.910;23.792;2023-01-31T02:03:11;49.13;;;24.83;;
57085;SDS011;42964;42.910;23.792;2023-01-31T02:08:11;48.97;;;25.88;;
57085;SDS011;42964;42.910;23.792;2023-01-31T02:13:13;59.42;;;29.75;;
57085;SDS011;42964;42.910;23.792;2023-01-31T02:18:13;57.15;;;29.58;;
57085;SDS011;42964;42.910;23.792;2023-01-31T02:55:17;79.05;;;41.80;;
57085;SDS011;42964;42.910;23.792;2023-01-31T03:00:54;147.57;;;83.45;;
57085;SDS011;42964;42.910;23.792;2023-01-31T03:06:11;84.63;;;42.38;;
57085;SDS011;42964;42.910;23.792;2023-01-31T03:11:11;64.47;;;30.38;;
57085;SDS011;42964;42.910;23.792;2023-01-31T03:22:30;60.13;;;28.45;;
57085;SDS011;42964;42.910;23.792;2023-01-31T03:27:33;55.88;;;26.77;;
57085;SDS011;42964;42.910;23.792;2023-01-31T03:32:34;61.90;;;30.70;;
57085;SDS011;42964;42.910;23.792;2023-01-31T03:37:44;68.15;;;35.10;;
57085;SDS011;42964;42.910;23.792;2023-01-31T03:42:56;60.05;;;31.50;;
57085;SDS011;42964;42.910;23.792;2023-01-31T03:48:00;50.13;;;25.17;;
57085;SDS011;42964;42.910;23.792;2023-01-31T03:53:06;46.60;;;23.80;;
57085;SDS011;42964;42.910;23.792;2023-01-31T03:58:27;51.80;;;27.33;;
57085;SDS011;42964;42.910;23.792;2023-01-31T04:03:31;53.38;;;27.08;;
57085;SDS011;42964;42.910;23.792;2023-01-31T04:08:37;58.08;;;29.95;;
57085;SDS011;42964;42.910;23.792;2023-01-31T04:13:36;63.75;;;34.67;;
57085;SDS011;42964;42.910;23.792;2023-01-31T04:18:36;71.85;;;33.38;;
57085;SDS011;42964;42.910;23.792;2023-01-31T04:23:35;61.80;;;31.27;;
57085;SDS011;42964;42.910;23.792;2023-01-31T04:33:33;68.28;;;35.13;;
57085;SDS011;42964;42.910;23.792;2023-01-31T04:38:32;58.80;;;29.88;;
57085;SDS011;42964;42.910;23.792;2023-01-31T04:43:31;57.05;;;28.85;;
57085;SDS011;42964;42.910;23.792;2023-01-31T04:53:28;74.03;;;34.90;;
57085;SDS011;42964;42.910;23.792;2023-01-31T04:58:27;130.32;;;47.22;;
57085;SDS011;42964;42.910;23.792;2023-01-31T05:08:25;250.98;;;81.53;;
57085;SDS011;42964;42.910;23.792;2023-01-31T05:13:24;59.60;;;31.95;;
57085;SDS011;42964;42.910;23.792;2023-01-31T05:18:24;92.45;;;44.28;;
57085;SDS011;42964;42.910;23.792;2023-01-31T05:23:23;77.63;;;44.35;;
57085;SDS011;42964;42.910;23.792;2023-01-31T05:28:22;75.53;;;39.33;;
57085;SDS011;42964;42.910;23.792;2023-01-31T05:33:23;108.72;;;59.47;;
57085;SDS011;42964;42.910;23.792;2023-01-31T05:38:25;84.38;;;45.78;;
57085;SDS011;42964;42.910;23.792;2023-01-31T05:43:24;74.38;;;42.17;;
57085;SDS011;42964;42.910;23.792;2023-01-31T05:48:23;77.32;;;41.00;;
57085;SDS011;42964;42.910;23.792;2023-01-31T05:53:22;97.82;;;55.25;;
57085;SDS011;42964;42.910;23.792;2023-01-31T05:58:22;133.55;;;71.82;;
57085;SDS011;42964;42.910;23.792;2023-01-31T06:03:21;119.60;;;66.45;;
57085;SDS011;42964;42.910;23.792;2023-01-31T06:08:20;98.53;;;52.95;;
57085;SDS011;42964;42.910;23.792;2023-01-31T06:13:19;164.10;;;81.07;;
57085;SDS011;42964;42.910;23.792;2023-01-31T06:18:17;74.35;;;40.25;;
57085;SDS011;42964;42.910;23.792;2023-01-31T06:23:17;72.80;;;39.60;;
57085;SDS011;42964;42.910;23.792;2023-01-31T06:28:16;131.27;;;74.18;;
57085;SDS011;42964;42.910;23.792;2023-01-31T06:33:16;169.80;;;89.47;;
57085;SDS011;42964;42.910;23.792;2023-01-31T06:38:15;154.80;;;85.25;;
57085;SDS011;42964;42.910;23.792;2023-01-31T06:43:14;98.35;;;53.40;;
57085;SDS011;42964;42.910;23.792;2023-01-31T06:48:13;135.27;;;83.38;;
57085;SDS011;42964;42.910;23.792;2023-01-31T06:53:13;125.68;;;65.30;;
57085;SDS011;42964;42.910;23.792;2023-01-31T06:58:12;83.68;;;49.10;;
57085;SDS011;42964;42.910;23.792;2023-01-31T07:08:10;83.45;;;46.83;;
57085;SDS011;42964;42.910;23.792;2023-01-31T07:13:09;87.20;;;50.40;;
57085;SDS011;42964;42.910;23.792;2023-01-31T07:18:08;55.90;;;31.20;;
57085;SDS011;42964;42.910;23.792;2023-01-31T07:28:06;81.18;;;41.65;;
57085;SDS011;42964;42.910;23.792;2023-01-31T07:33:05;58.67;;;34.55;;
57085;SDS011;42964;42.910;23.792;2023-01-31T07:38:04;80.90;;;45.35;;
57085;SDS011;42964;42.910;23.792;2023-01-31T07:43:03;84.40;;;48.90;;
57085;SDS011;42964;42.910;23.792;2023-01-31T07:48:02;85.55;;;54.72;;
57085;SDS011;42964;42.910;23.792;2023-01-31T07:53:01;68.53;;;40.97;;
57085;SDS011;42964;42.910;23.792;2023-01-31T08:02:59;49.92;;;30.27;;
57085;SDS011;42964;42.910;23.792;2023-01-31T08:08:16;61.90;;;37.85;;
57085;SDS011;42964;42.910;23.792;2023-01-31T08:13:15;72.65;;;44.00;;
57085;SDS011;42964;42.910;23.792;2023-01-31T08:18:14;79.82;;;47.45;;
57085;SDS011;42964;42.910;23.792;2023-01-31T08:23:13;81.32;;;48.72;;
57085;SDS011;42964;42.910;23.792;2023-01-31T08:28:12;97.65;;;59.42;;
57085;SDS011;42964;42.910;23.792;2023-01-31T08:33:11;86.78;;;56.90;;
57085;SDS011;42964;42.910;23.792;2023-01-31T08:38:10;95.32;;;58.97;;
57085;SDS011;42964;42.910;23.792;2023-01-31T08:43:09;98.95;;;60.00;;
57085;SDS011;42964;42.910;23.792;2023-01-31T08:48:08;140.68;;;81.22;;
57085;SDS011;42964;42.910;23.792;2023-01-31T08:53:07;111.97;;;70.55;;
57085;SDS011;42964;42.910;23.792;2023-01-31T08:58:06;117.60;;;75.55;;
57085;SDS011;42964;42.910;23.792;2023-01-31T09:03:05;90.43;;;58.28;;
57085;SDS011;42964;42.910;23.792;2023-01-31T09:08:04;84.65;;;51.88;;
57085;SDS011;42964;42.910;23.792;2023-01-31T09:13:03;74.25;;;45.67;;
57085;SDS011;42964;42.910;23.792;2023-01-31T09:18:02;40.03;;;25.38;;
57085;SDS011;42964;42.910;23.792;2023-01-31T09:23:03;42.22;;;26.00;;
57085;SDS011;42964;42.910;23.792;2023-01-31T09:33:00;23.67;;;14.70;;
57085;SDS011;42964;42.910;23.792;2023-01-31T09:37:59;28.52;;;17.27;;
57085;SDS011;42964;42.910;23.792;2023-01-31T09:42:58;51.38;;;31.58;;
57085;SDS011;42964;42.910;23.792;2023-01-31T09:48:00;33.03;;;16.90;;
57085;SDS011;42964;42.910;23.792;2023-01-31T09:53:01;19.67;;;11.68;;
57085;SDS011;42964;42.910;23.792;2023-01-31T09:58:24;14.48;;;10.60;;
57085;SDS011;42964;42.910;23.792;2023-01-31T10:03:59;10.57;;;6.78;;
57085;SDS011;42964;42.910;23.792;2023-01-31T10:09:13;20.42;;;12.70;;
57085;SDS011;42964;42.910;23.792;2023-01-31T10:14:56;11.00;;;6.30;;
57085;SDS011;42964;42.910;23.792;2023-01-31T10:19:56;13.15;;;9.95;;
57085;SDS011;42964;42.910;23.792;2023-01-31T10:25:03;21.88;;;16.30;;
57085;SDS011;42964;42.910;23.792;2023-01-31T10:30:25;15.32;;;10.90;;
57085;SDS011;42964;42.910;23.792;2023-01-31T10:35:40;13.27;;;10.43;;
57085;SDS011;42964;42.910;23.792;2023-01-31T10:40:41;21.40;;;13.48;;
57085;SDS011;42964;42.910;23.792;2023-01-31T10:45:44;20.52;;;11.98;;
57085;SDS011;42964;42.910;23.792;2023-01-31T10:56:33;6.20;;;5.10;;
57085;SDS011;42964;42.910;23.792;2023-01-31T11:01:35;9.88;;;6.30;;
57085;SDS011;42964;42.910;23.792;2023-01-31T11:06:35;11.23;;;6.60;;
57085;SDS011;42964;42.910;23.792;2023-01-31T11:11:33;12.73;;;7.75;;
57085;SDS011;42964;42.910;23.792;2023-01-31T11:16:58;10.00;;;6.65;;
57085;SDS011;42964;42.910;23.792;2023-01-31T11:22:22;36.42;;;24.92;;
57085;SDS011;42964;42.910;23.792;2023-01-31T11:27:26;52.50;;;36.60;;
57085;SDS011;42964;42.910;23.792;2023-01-31T11:32:45;9.85;;;6.72;;
57085;SDS011;42964;42.910;23.792;2023-01-31T11:42:56;6.47;;;3.90;;
57085;SDS011;42964;42.910;23.792;2023-01-31T11:47:57;4.00;;;2.63;;
57085;SDS011;42964;42.910;23.792;2023-01-31T11:53:18;2.95;;;2.10;;
57085;SDS011;42964;42.910;23.792;2023-01-31T11:58:31;6.65;;;4.10;;
57085;SDS011;42964;42.910;23.792;2023-01-31T12:03:34;5.07;;;3.50;;
57085;SDS011;42964;42.910;23.792;2023-01-31T12:08:38;11.18;;;5.85;;
57085;SDS011;42964;42.910;23.792;2023-01-31T12:14:00;14.70;;;7.88;;
57085;SDS011;42964;42.910;23.792;2023-01-31T13:07:23;5.57;;;3.63;;
57085;SDS011;42964;42.910;23.792;2023-01-31T13:12:29;9.98;;;5.20;;
57085;SDS011;42964;42.910;23.792;2023-01-31T13:17:32;7.78;;;4.22;;
57085;SDS011;42964;42.910;23.792;2023-01-31T13:22:41;5.70;;;4.25;;
57085;SDS011;42964;42.910;23.792;2023-01-31T13:27:46;24.83;;;11.23;;
57085;SDS011;42964;42.910;23.792;2023-01-31T13:33:56;74.32;;;42.28;;
57085;SDS011;42964;42.910;23.792;2023-01-31T13:38:49;99.07;;;44.15;;
57085;SDS011;42964;42.910;23.792;2023-01-31T13:43:50;19.73;;;11.27;;
57085;SDS011;42964;42.910;23.792;2023-01-31T13:54:02;7.70;;;5.53;;
57085;SDS011;42964;42.910;23.792;2023-01-31T13:59:17;21.48;;;12.20;;
57085;SDS011;42964;42.910;23.792;2023-01-31T14:04:21;13.57;;;8.23;;
57085;SDS011;42964;42.910;23.792;2023-01-31T14:09:45;18.33;;;9.57;;
57085;SDS011;42964;42.910;23.792;2023-01-31T14:15:28;11.68;;;6.97;;
57085;SDS011;42964;42.910;23.792;2023-01-31T14:20:39;15.15;;;10.50;;
57085;SDS011;42964;42.910;23.792;2023-01-31T14:25:39;22.75;;;15.05;;
57085;SDS011;42964;42.910;23.792;2023-01-31T14:30:40;45.40;;;28.08;;
57085;SDS011;42964;42.910;23.792;2023-01-31T14:57:26;39.53;;;26.17;;
57085;SDS011;42964;42.910;23.792;2023-01-31T15:07:30;31.70;;;17.48;;
57085;SDS011;42964;42.910;23.792;2023-01-31T15:17:59;17.75;;;9.48;;
57085;SDS011;42964;42.910;23.792;2023-01-31T15:23:01;14.98;;;8.18;;
57085;SDS011;42964;42.910;23.792;2023-01-31T15:28:03;13.70;;;8.63;;
57085;SDS011;42964;42.910;23.792;2023-01-31T15:33:15;13.27;;;9.45;;
57085;SDS011;42964;42.910;23.792;2023-01-31T15:38:31;20.60;;;12.45;;
57085;SDS011;42964;42.910;23.792;2023-01-31T15:43:32;25.75;;;16.23;;
57085;SDS011;42964;42.910;23.792;2023-01-31T15:48:36;23.65;;;14.68;;
57085;SDS011;42964;42.910;23.792;2023-01-31T15:53:39;25.70;;;15.35;;
57085;SDS011;42964;42.910;23.792;2023-01-31T15:58:41;14.13;;;9.80;;
57085;SDS011;42964;42.910;23.792;2023-01-31T16:04:02;37.38;;;21.98;;
57085;SDS011;42964;42.910;23.792;2023-01-31T16:09:03;49.45;;;28.45;;
57085;SDS011;42964;42.910;23.792;2023-01-31T16:14:04;75.80;;;46.00;;
57085;SDS011;42964;42.910;23.792;2023-01-31T16:19:05;50.78;;;33.67;;
57085;SDS011;42964;42.910;23.792;2023-01-31T16:29:12;40.70;;;26.00;;
57085;SDS011;42964;42.910;23.792;2023-01-31T16:34:34;40.03;;;27.13;;
57085;SDS011;42964;42.910;23.792;2023-01-31T16:39:43;40.95;;;26.23;;
57085;SDS011;42964;42.910;23.792;2023-01-31T16:44:45;46.97;;;29.93;;
57085;SDS011;42964;42.910;23.792;2023-01-31T16:49:45;46.25;;;29.45;;
57085;SDS011;42964;42.910;23.792;2023-01-31T16:54:50;43.78;;;28.90;;
57085;SDS011;42964;42.910;23.792;2023-01-31T16:59:51;57.42;;;35.17;;
57085;SDS011;42964;42.910;23.792;2023-01-31T17:04:52;51.03;;;32.45;;
57085;SDS011;42964;42.910;23.792;2023-01-31T17:09:55;53.03;;;32.78;;
57085;SDS011;42964;42.910;23.792;2023-01-31T17:14:56;59.78;;;36.55;;
57085;SDS011;42964;42.910;23.792;2023-01-31T17:19:55;50.42;;;31.98;;
57085;SDS011;42964;42.910;23.792;2023-01-31T17:24:54;47.97;;;30.10;;
57085;SDS011;42964;42.910;23.792;2023-01-31T17:34:52;35.33;;;24.35;;
57085;SDS011;42964;42.910;23.792;2023-01-31T17:39:51;47.42;;;27.70;;
57085;SDS011;42964;42.910;23.792;2023-01-31T17:44:50;73.93;;;40.15;;
57085;SDS011;42964;42.910;23.792;2023-01-31T17:49:49;50.33;;;28.25;;
57085;SDS011;42964;42.910;23.792;2023-01-31T17:54:48;179.80;;;96.88;;
57085;SDS011;42964;42.910;23.792;2023-01-31T18:04:46;44.10;;;30.30;;
57085;SDS011;42964;42.910;23.792;2023-01-31T18:09:45;29.65;;;19.80;;
57085;SDS011;42964;42.910;23.792;2023-01-31T18:14:44;19.35;;;12.32;;
57085;SDS011;42964;42.910;23.792;2023-01-31T18:19:43;26.55;;;19.27;;
57085;SDS011;42964;42.910;23.792;2023-01-31T18:24:42;30.88;;;21.40;;
57085;SDS011;42964;42.910;23.792;2023-01-31T18:29:42;51.80;;;34.42;;
57085;SDS011;42964;42.910;23.792;2023-01-31T18:34:41;46.00;;;30.35;;
57085;SDS011;42964;42.910;23.792;2023-01-31T18:39:40;43.00;;;27.17;;
57085;SDS011;42964;42.910;23.792;2023-01-31T18:44:39;43.47;;;29.30;;
57085;SDS011;42964;42.910;23.792;2023-01-31T18:49:38;58.13;;;35.53;;
57085;SDS011;42964;42.910;23.792;2023-01-31T18:54:37;58.95;;;36.25;;
57085;SDS011;42964;42.910;23.792;2023-01-31T18:59:36;44.28;;;26.73;;
57085;SDS011;42964;42.910;23.792;2023-01-31T19:04:35;67.88;;;41.67;;
57085;SDS011;42964;42.910;23.792;2023-01-31T19:09:34;66.25;;;39.97;;
57085;SDS011;42964;42.910;23.792;2023-01-31T19:14:33;55.33;;;34.22;;
57085;SDS011;42964;42.910;23.792;2023-01-31T19:19:32;70.30;;;43.08;;
57085;SDS011;42964;42.910;23.792;2023-01-31T19:24:32;86.13;;;52.53;;
57085;SDS011;42964;42.910;23.792;2023-01-31T19:29:31;76.03;;;47.40;;
57085;SDS011;42964;42.910;23.792;2023-01-31T19:34:30;82.72;;;50.28;;
57085;SDS011;42964;42.910;23.792;2023-01-31T19:39:28;78.68;;;47.85;;
57085;SDS011;42964;42.910;23.792;2023-01-31T19:44:27;72.80;;;45.40;;
57085;SDS011;42964;42.910;23.792;2023-01-31T19:49:26;75.72;;;47.15;;
57085;SDS011;42964;42.910;23.792;2023-01-31T19:54:25;78.85;;;46.40;;
57085;SDS011;42964;42.910;23.792;2023-01-31T19:59:24;67.80;;;40.60;;
57085;SDS011;42964;42.910;23.792;2023-01-31T20:04:23;51.90;;;30.98;;
57085;SDS011;42964;42.910;23.792;2023-01-31T20:09:22;40.53;;;25.15;;
57085;SDS011;42964;42.910;23.792;2023-01-31T20:14:21;29.35;;;19.70;;
57085;SDS011;42964;42.910;23.792;2023-01-31T20:19:20;33.50;;;20.60;;
57085;SDS011;42964;42.910;23.792;2023-01-31T20:24:20;30.15;;;18.17;;
57085;SDS011;42964;42.910;23.792;2023-01-31T20:29:19;133.68;;;67.88;;
57085;SDS011;42964;42.910;23.792;2023-01-31T20:34:17;86.00;;;46.90;;
57085;SDS011;42964;42.910;23.792;2023-01-31T20:39:16;66.35;;;37.05;;
57085;SDS011;42964;42.910;23.792;2023-01-31T20:44:15;59.90;;;34.50;;
57085;SDS011;42964;42.910;23.792;2023-01-31T20:49:14;32.08;;;19.58;;
57085;SDS011;42964;42.910;23.792;2023-01-31T20:54:13;26.02;;;16.38;;
57085;SDS011;42964;42.910;23.792;2023-01-31T20:59:12;67.90;;;39.83;;
57085;SDS011;42964;42.910;23.792;2023-01-31T21:04:12;86.30;;;47.67;;
57085;SDS011;42964;42.910;23.792;2023-01-31T21:09:12;96.15;;;49.35;;
57085;SDS011;42964;42.910;23.792;2023-01-31T21:14:10;61.75;;;34.85;;
57085;SDS011;42964;42.910;23.792;2023-01-31T21:19:09;45.33;;;27.25;;
57085;SDS011;42964;42.910;23.792;2023-01-31T21:24:08;38.97;;;21.75;;
57085;SDS011;42964;42.910;23.792;2023-01-31T21:29:07;19.67;;;12.30;;
57085;SDS011;42964;42.910;23.792;2023-01-31T21:34:06;24.75;;;15.57;;
57085;SDS011;42964;42.910;23.792;2023-01-31T21:44:04;20.48;;;13.07;;
57085;SDS011;42964;42.910;23.792;2023-01-31T21:49:04;48.83;;;31.00;;
57085;SDS011;42964;42.910;23.792;2023-01-31T21:54:03;46.38;;;25.00;;
57085;SDS011;42964;42.910;23.792;2023-01-31T21:59:02;31.58;;;17.67;;
57085;SDS011;42964;42.910;23.792;2023-01-31T22:04:01;28.90;;;16.55;;
57085;SDS011;42964;42.910;23.792;2023-01-31T22:09:01;27.30;;;16.60;;
57085;SDS011;42964;42.910;23.792;2023-01-31T22:14:01;35.90;;;21.15;;
57085;SDS011;42964;42.910;23.792;2023-01-31T22:19:02;40.67;;;25.38;;
57085;SDS011;42964;42.910;23.792;2023-01-31T22:29:02;88.60;;;49.40;;
57085;SDS011;42964;42.910;23.792;2023-01-31T22:34:03;56.33;;;33.25;;
57085;SDS011;42964;42.910;23.792;2023-01-31T22:39:03;45.55;;;28.58;;
57085;SDS011;42964;42.910;23.792;2023-01-31T22:44:02;33.00;;;19.23;;
57085;SDS011;42964;42.910;23.792;2023-01-31T22:49:02;75.03;;;44.30;;
57085;SDS011;42964;42.910;23.792;2023-01-31T22:54:00;70.78;;;43.88;;
57085;SDS011;42964;42.910;23.792;2023-01-31T22:59:00;79.63;;;48.58;;
57085;SDS011;42964;42.910;23.792;2023-01-31T23:04:01;80.35;;;48.92;;
57085;SDS011;42964;42.910;23.792;2023-01-31T23:09:01;83.38;;;48.08;;
57085;SDS011;42964;42.910;23.792;2023-01-31T23:14:01;70.93;;;41.17;;
57085;SDS011;42964;42.910;23.792;2023-01-31T23:19:00;77.18;;;44.97;;
57085;SDS011;42964;42.910;23.792;2023-01-31T23:23:59;89.22;;;46.92;;
57085;SDS011;42964;42.910;23.792;2023-01-31T23:28:58;89.90;;;42.78;;
57085;SDS011;42964;42.910;23.792;2023-01-31T23:33:57;50.03;;;27.08;;
57085;SDS011;42964;42.910;23.792;2023-01-31T23:38:58;44.10;;;23.38;;
57085;SDS011;42964;42.910;23.792;2023-01-31T23:43:58;43.78;;;24.45;;
57085;SDS011;42964;42.910;23.792;2023-01-31T23:48:57;34.05;;;19.48;;
57085;SDS011;42964;42.910;23.792;2023-01-31T23:53:56;26.45;;;15.85;;
57085;SDS011;42964;42.910;23.792;2023-01-31T23:58:54;39.50;;;20.35;;
